Time;durP1;ratioP1;P1;durP2;ratioP2;P2;SDS_P1;SDS_P2;PMS_P1;PMS_P2;Temp;Humidity;BMP_temperature;BMP_pressure;BME280_temperature;BME280_humidity;BME280_pressure;Samples;Min_cycle;Max_cycle;Signal;HPM_P1;HPM_P2
2022/12/24 00:01:05;;;;;;;7.83;6.10;;;9.40;89.70;;;12.27;62.71;100251.28;5034267;28;20276;-53
2022/12/24 00:03:33;;;;;;;6.97;6.27;;;9.40;89.70;;;12.26;62.28;100244.41;5036035;28;20269;-54
2022/12/24 00:06:03;;;;;;;6.00;4.93;;;9.40;89.60;;;12.24;62.89;100247.22;5033441;28;20214;-56
2022/12/24 00:08:30;;;;;;;6.33;5.73;;;9.40;89.60;;;12.23;62.33;100245.63;5028324;28;20589;-56
2022/12/24 00:10:59;;;;;;;7.67;5.87;;;9.40;89.60;;;12.23;62.64;100237.69;5035295;28;20422;-54
2022/12/24 00:13:26;;;;;;;6.27;5.33;;;9.40;89.50;;;12.22;62.65;100229.97;5035460;28;20243;-53
2022/12/24 00:15:53;;;;;;;5.70;5.20;;;9.40;89.50;;;12.20;62.74;100224.91;5035117;28;20217;-55
2022/12/24 00:18:19;;;;;;;6.10;5.50;;;9.40;89.50;;;12.20;62.58;100232.81;5035231;28;20195;-55
2022/12/24 00:20:48;;;;;;;5.50;4.90;;;9.40;89.40;;;12.17;62.80;100230.56;5035205;28;20191;-55
2022/12/24 00:23:16;;;;;;;7.70;5.60;;;9.40;89.30;;;12.15;62.74;100227.31;5034736;28;20210;-54
2022/12/24 00:25:44;;;;;;;8.03;5.50;;;9.40;89.40;;;12.15;62.58;100227.31;5035264;28;20731;-55
2022/12/24 00:28:14;;;;;;;6.77;5.70;;;9.40;89.40;;;12.15;62.57;100232.59;5035124;28;20513;-54
2022/12/24 00:30:42;;;;;;;6.57;5.67;;;9.40;89.40;;;12.16;62.62;100234.22;5035597;28;20189;-52
2022/12/24 00:33:09;;;;;;;5.40;4.87;;;9.40;89.50;;;12.17;62.80;100241.09;5035639;28;20198;-54
2022/12/24 00:35:39;;;;;;;5.63;4.83;;;9.40;89.60;;;12.20;62.67;100239.91;5035860;28;20278;-55
2022/12/24 00:38:07;;;;;;;5.83;5.23;;;9.40;89.70;;;12.21;62.57;100238.91;5034540;28;20211;-56
2022/12/24 00:40:34;;;;;;;6.27;5.63;;;9.40;89.80;;;12.22;62.72;100236.06;5015568;28;20494;-54
2022/12/24 00:43:02;;;;;;;6.30;5.20;;;9.40;89.60;;;12.21;62.51;100237.09;5015189;28;20273;-52
2022/12/24 00:45:30;;;;;;;8.63;7.73;;;9.40;89.50;;;12.17;62.38;100240.31;5013928;28;20545;-54
2022/12/24 00:47:57;;;;;;;7.00;5.67;;;9.40;89.20;;;12.19;62.28;100244.34;5018500;28;20202;-51
2022/12/24 00:50:24;;;;;;;5.93;4.70;;;9.40;89.40;;;12.21;62.58;100247.66;5035237;28;20273;-54
2022/12/24 00:52:51;;;;;;;5.77;5.00;;;9.30;89.30;;;12.21;62.66;100255.56;5035141;28;20201;-52
2022/12/24 00:55:18;;;;;;;5.23;4.73;;;9.30;89.40;;;12.20;62.54;100256.56;5035814;28;20206;-54
2022/12/24 00:57:45;;;;;;;5.73;4.87;;;9.40;89.50;;;12.20;62.52;100255.75;5036577;28;20285;-53
2022/12/24 01:00:16;;;;;;;6.73;5.77;;;9.30;89.40;;;12.23;62.38;100260.63;5034026;28;20218;-53
2022/12/24 01:02:44;;;;;;;6.47;5.70;;;9.40;89.60;;;12.23;62.47;100261.44;5034823;28;20215;-54
2022/12/24 01:05:12;;;;;;;5.77;5.20;;;9.40;89.60;;;12.23;62.40;100266.72;5034860;28;20187;-53
2022/12/24 01:07:43;;;;;;;6.10;5.33;;;9.40;89.50;;;12.22;62.28;100270.34;5034749;28;20195;-54
2022/12/24 01:10:13;;;;;;;6.03;5.33;;;9.40;89.40;;;12.21;62.52;100265.28;5034216;28;20210;-54
2022/12/24 01:12:40;;;;;;;6.07;5.17;;;9.40;89.40;;;12.19;62.74;100265.47;5015299;28;20199;-55
2022/12/24 01:15:10;;;;;;;6.00;5.00;;;9.40;89.40;;;12.22;62.40;100280.91;5014984;28;20245;-53
2022/12/24 01:17:38;;;;;;;5.77;4.63;;;9.40;89.50;;;12.25;62.79;100279.72;5014689;28;20266;-53
2022/12/24 01:20:13;;;;;;;7.33;5.77;;;9.40;89.60;;;12.28;62.56;100283.78;5014309;28;20214;-52
2022/12/24 01:22:40;;;;;;;5.17;4.67;;;9.40;89.60;;;12.31;62.57;100288.69;5014956;28;20233;-53
2022/12/24 01:25:08;;;;;;;5.07;4.57;;;9.40;89.60;;;12.31;62.24;100293.94;5015438;28;20195;-54
2022/12/24 01:27:35;;;;;;;5.23;4.73;;;9.40;89.60;;;12.34;62.32;100297.00;5015445;28;20201;-54
2022/12/24 01:30:04;;;;;;;6.10;5.20;;;9.40;89.70;;;12.36;62.50;100302.88;5014265;28;20247;-53
2022/12/24 01:32:31;;;;;;;5.87;4.70;;;9.40;89.70;;;12.39;62.14;100302.50;5014611;28;20540;-54
2022/12/24 01:34:58;;;;;;;5.30;4.73;;;9.40;89.60;;;12.41;62.34;100304.97;5014054;28;20214;-53
2022/12/24 01:37:27;;;;;;;5.80;4.90;;;9.40;89.70;;;12.45;62.23;100308.81;5013295;28;20195;-54
2022/12/24 01:43:22;;;;;;;5.40;4.80;;;9.40;89.80;;;12.46;62.06;100316.53;5013618;28;20215;-53
2022/12/24 01:45:54;;;;;;;5.67;4.87;;;9.50;89.70;;;12.37;62.02;100315.09;5014032;28;20215;-54
2022/12/24 01:48:33;;;;;;;6.30;5.70;;;9.50;89.60;;;12.32;62.07;100316.66;5017636;28;20253;-54
2022/12/24 01:51:07;;;;;;;4.77;4.37;;;9.50;89.10;;;12.29;62.03;100311.81;5033770;28;20546;-55
2022/12/24 01:53:41;;;;;;;4.60;4.20;;;9.50;89.10;;;12.26;62.39;100312.19;5033718;28;20176;-52
2022/12/24 01:56:10;;;;;;;6.63;4.90;;;9.50;89.20;;;12.28;62.40;100305.72;5033703;28;20286;-52
2022/12/24 01:58:42;;;;;;;6.03;5.03;;;9.40;89.30;;;12.29;62.17;100306.53;5033202;28;20215;-54
2022/12/24 02:01:09;;;;;;;4.80;4.23;;;9.50;89.40;;;12.33;62.47;100319.13;5015327;28;20203;-55
2022/12/24 02:03:36;;;;;;;4.63;4.23;;;9.40;89.40;;;12.34;62.28;100315.47;5013639;28;20605;-55
2022/12/24 02:06:05;;;;;;;4.80;4.40;;;9.40;89.40;;;12.37;62.49;100314.25;5014012;28;20199;-52
2022/12/24 02:08:38;;;;;;;5.80;5.03;;;9.40;89.40;;;12.37;62.16;100315.09;5014574;28;20528;-55
2022/12/24 02:11:13;;;;;;;5.77;5.17;;;9.50;89.40;;;12.38;61.79;100316.72;5017746;28;20204;-54
2022/12/24 02:13:43;;;;;;;5.10;4.53;;;9.50;89.40;;;12.32;61.86;100306.94;5013529;28;20195;-54
2022/12/24 02:16:31;;;;;;;5.27;4.73;;;9.50;89.20;;;12.29;62.36;100317.09;5026786;28;20211;-55
2022/12/24 02:19:20;;;;;;;4.93;4.30;;;9.50;89.30;;;12.28;62.21;100321.53;5033153;28;20213;-53
2022/12/24 02:21:58;;;;;;;5.07;4.57;;;9.50;89.20;;;12.27;61.98;100314.63;5033430;28;20248;-55
2022/12/24 02:25:03;;;;;;;5.10;4.60;;;9.40;89.10;;;12.25;62.45;100327.19;5033330;28;20217;-54
2022/12/24 02:27:53;;;;;;;4.63;4.20;;;9.40;89.40;;;12.28;62.28;100326.81;5009691;28;20214;-53
2022/12/24 02:30:26;;;;;;;4.83;4.30;;;9.50;89.40;;;12.32;62.32;100340.41;5033035;28;20293;-52
2022/12/24 02:33:19;;;;;;;5.23;4.73;;;9.40;89.40;;;12.29;62.37;100343.47;5033143;28;20673;-55
2022/12/24 02:35:54;;;;;;;5.17;4.53;;;9.40;89.30;;;12.32;62.34;100343.06;5033677;28;20579;-53
2022/12/24 02:38:29;;;;;;;5.13;4.63;;;9.40;89.30;;;12.33;62.12;100339.44;5032633;28;20280;-54
2022/12/24 02:41:02;;;;;;;5.30;4.77;;;9.40;89.40;;;12.36;62.23;100345.13;5033459;28;20204;-53
2022/12/24 02:43:37;;;;;;;4.53;4.13;;;9.50;89.50;;;12.38;62.32;100340.47;5033760;28;20573;-53
2022/12/24 02:46:12;;;;;;;4.77;4.37;;;9.40;89.40;;;12.38;61.76;100329.91;5033399;28;20188;-52
2022/12/24 02:48:43;;;;;;;5.10;4.47;;;9.50;89.50;;;12.41;62.17;100337.44;5036643;28;20240;-51
2022/12/24 02:51:11;;;;;;;5.13;4.63;;;9.40;89.40;;;12.43;62.05;100351.22;5038426;28;20270;-56
2022/12/24 02:53:39;;;;;;;4.17;3.80;;;9.50;89.50;;;12.45;61.91;100345.78;5040873;28;20272;-55
2022/12/24 02:56:33;;;;;;;5.63;4.90;;;9.50;90.10;;;12.38;61.96;100345.75;5036465;28;20187;-55
2022/12/24 02:59:27;;;;;;;4.40;4.00;;;9.50;89.40;;;12.37;62.23;100357.31;5018364;28;20729;-53
2022/12/24 03:02:10;;;;;;;4.50;4.10;;;9.50;89.40;;;12.36;62.22;100350.38;5036215;28;20245;-51
2022/12/24 03:04:54;;;;;;;4.40;4.00;;;9.50;89.40;;;12.32;62.16;100348.34;5036835;28;20226;-56
2022/12/24 03:07:28;;;;;;;4.40;4.00;;;9.50;89.20;;;12.31;62.08;100357.28;5037311;28;20297;-54
2022/12/24 03:10:11;;;;;;;3.90;3.60;;;9.50;89.20;;;12.28;62.32;100357.66;5036496;28;20206;-55
2022/12/24 03:12:43;;;;;;;3.73;3.43;;;9.50;89.20;;;12.20;62.33;100356.81;5035190;28;20185;-55
2022/12/24 03:15:16;;;;;;;3.80;3.47;;;9.50;89.10;;;12.17;62.68;100362.47;5026417;28;20199;-55
2022/12/24 03:17:48;;;;;;;5.57;3.57;;;9.50;89.20;;;12.15;62.77;100372.41;5016856;28;20214;-55
2022/12/24 03:20:24;;;;;;;3.97;3.57;;;9.50;89.20;;;12.14;62.90;100368.16;5016427;28;20232;-53
2022/12/24 03:22:51;;;;;;;4.13;3.70;;;9.40;89.30;;;12.12;62.67;100378.06;5016599;28;20199;-54
2022/12/24 03:25:22;;;;;;;3.17;2.87;;;9.40;89.20;;;12.11;63.12;100384.38;5017107;28;20285;-54
2022/12/24 03:27:50;;;;;;;3.63;3.30;;;9.40;89.20;;;12.13;62.86;100392.91;5017247;28;20187;-53
2022/12/24 03:30:19;;;;;;;4.33;3.93;;;9.40;89.40;;;12.17;62.78;100394.13;5029788;28;20234;-55
2022/12/24 03:32:47;;;;;;;3.70;3.40;;;9.40;89.50;;;12.21;63.09;100391.94;5036233;28;20555;-53
2022/12/24 03:35:14;;;;;;;3.77;3.37;;;9.40;89.50;;;12.20;62.51;100387.66;5036087;28;20559;-53
2022/12/24 03:37:41;;;;;;;3.47;3.17;;;9.40;89.50;;;12.17;62.76;100394.13;5036106;28;20205;-54
2022/12/24 03:40:09;;;;;;;3.90;3.30;;;9.40;89.30;;;12.18;63.06;100400.22;5034568;28;20214;-55
2022/12/24 03:42:36;;;;;;;3.60;3.30;;;9.40;89.40;;;12.21;62.82;100400.69;5036366;28;20187;-55
2022/12/24 03:45:04;;;;;;;3.43;3.13;;;9.40;89.50;;;12.30;62.66;100413.69;5035161;28;20194;-52
2022/12/24 03:47:31;;;;;;;2.67;2.47;;;9.40;89.80;;;12.37;62.81;100412.72;5029776;28;20191;-55
2022/12/24 03:50:00;;;;;;;3.40;3.10;;;9.40;90.00;;;12.46;62.81;100402.81;5035657;28;20214;-53
2022/12/24 03:52:27;;;;;;;3.43;3.13;;;9.50;90.00;;;12.51;62.33;100405.69;5035999;28;20198;-55
2022/12/24 03:54:54;;;;;;;3.30;3.00;;;9.50;90.00;;;12.56;62.36;100409.38;5036280;28;20186;-54
2022/12/24 03:57:21;;;;;;;3.40;3.10;;;9.60;90.00;;;12.58;62.02;100402.09;5036294;28;20195;-55
2022/12/24 03:59:48;;;;;;;3.63;3.33;;;9.60;89.70;;;12.57;61.96;100397.00;5034534;28;20313;-53
2022/12/24 04:02:15;;;;;;;4.40;4.00;;;9.60;89.50;;;12.55;61.95;100412.25;5022488;28;20195;-53
2022/12/24 04:04:42;;;;;;;4.70;4.20;;;9.60;89.20;;;12.53;62.02;100408.94;5023019;28;20215;-53
2022/12/24 04:07:11;;;;;;;4.40;4.00;;;9.60;89.00;;;12.43;61.75;100416.44;5016682;28;20199;-53
2022/12/24 04:09:39;;;;;;;3.70;3.33;;;9.60;88.60;;;12.34;62.37;100418.38;5035617;28;20252;-51
2022/12/24 04:12:07;;;;;;;3.47;3.03;;;9.60;88.60;;;12.34;62.34;100421.03;5035587;28;20195;-54
2022/12/24 04:14:33;;;;;;;3.50;3.20;;;9.60;88.80;;;12.38;62.53;100426.75;5035548;28;20184;-53
2022/12/24 04:17:00;;;;;;;3.50;3.20;;;9.60;89.00;;;12.44;62.49;100429.41;5035431;28;20213;-52
2022/12/24 04:19:28;;;;;;;3.07;2.80;;;9.50;89.20;;;12.49;62.35;100434.13;5035118;28;20295;-53
2022/12/24 04:21:55;;;;;;;4.00;3.70;;;9.60;90.00;;;12.52;62.24;100423.19;5035188;28;20190;-55
2022/12/24 04:24:23;;;;;;;4.23;3.40;;;9.60;89.30;;;12.52;62.13;100439.03;5035480;28;20219;-53
2022/12/24 04:26:50;;;;;;;3.93;3.60;;;9.60;89.30;;;12.53;62.27;100436.16;5035270;28;20205;-55
2022/12/24 04:29:17;;;;;;;3.80;3.30;;;9.60;89.40;;;12.56;62.16;100434.97;5034173;28;20218;-53
2022/12/24 04:31:44;;;;;;;4.10;3.53;;;9.60;89.40;;;12.59;62.38;100439.88;5035182;28;20191;-52
2022/12/24 04:34:11;;;;;;;4.50;3.40;;;9.60;89.60;;;12.62;62.13;100448.19;5035142;28;20194;-56
2022/12/24 04:36:38;;;;;;;3.80;3.50;;;9.60;89.70;;;12.66;62.17;100448.63;5035107;28;20194;-56
2022/12/24 04:39:05;;;;;;;4.07;3.67;;;9.70;89.90;;;12.71;62.11;100439.13;5034756;28;20563;-53
2022/12/24 04:41:33;;;;;;;4.37;3.97;;;9.70;89.80;;;12.71;61.99;100448.88;5034767;28;20690;-55
2022/12/24 04:44:00;;;;;;;3.70;3.40;;;9.70;89.40;;;12.71;62.06;100462.06;5034833;28;20224;-55
2022/12/24 04:46:31;;;;;;;4.73;4.23;;;9.80;89.50;;;12.72;61.79;100451.31;5034542;28;20279;-55
2022/12/24 04:48:59;;;;;;;4.27;3.87;;;9.80;89.30;;;12.71;61.98;100456.78;5034654;28;20223;-53
2022/12/24 04:51:27;;;;;;;3.87;3.53;;;9.80;89.30;;;12.73;62.03;100454.78;5035013;28;20191;-54
2022/12/24 04:53:56;;;;;;;4.30;4.00;;;9.80;89.50;;;12.74;61.63;100465.13;5035109;28;20185;-54
2022/12/24 04:56:25;;;;;;;7.47;6.23;;;9.80;89.40;;;12.72;62.02;100464.50;5034492;28;20195;-55
2022/12/24 04:58:54;;;;;;;7.40;6.30;;;9.80;89.30;;;12.69;62.18;100461.47;5034276;28;20614;-55
2022/12/24 05:01:25;;;;;;;6.33;5.47;;;9.80;89.20;;;12.70;62.29;100452.50;5033598;28;20226;-54
2022/12/24 05:03:54;;;;;;;5.17;4.70;;;9.80;89.30;;;12.74;62.26;100448.50;5034367;28;20205;-54
2022/12/24 05:06:24;;;;;;;6.40;5.77;;;9.80;89.50;;;12.80;62.34;100461.72;5034945;28;20214;-51
2022/12/24 05:08:54;;;;;;;7.63;6.50;;;9.80;89.80;;;12.86;62.30;100457.47;5035610;28;20250;-51
2022/12/24 05:11:22;;;;;;;7.53;6.83;;;9.90;89.90;;;12.91;62.15;100463.78;5017165;28;20274;-54
2022/12/24 05:13:49;;;;;;;9.20;8.07;;;9.90;90.00;;;12.96;62.06;100465.03;5014638;28;20203;-56
2022/12/24 05:16:21;;;;;;;9.10;8.20;;;9.90;90.00;;;12.98;61.94;100469.09;5014514;28;20192;-53
2022/12/24 05:18:48;;;;;;;10.53;9.43;;;9.90;90.00;;;13.00;62.04;100469.75;5014583;28;20257;-52
2022/12/24 05:21:18;;;;;;;10.20;9.10;;;10.00;89.00;;;13.02;61.86;100472.19;5014479;28;20218;-52
2022/12/24 05:26:35;;;;;;;11.50;9.77;;;10.00;89.00;;;13.01;61.89;100466.06;5014688;28;20198;-52
2022/12/24 05:29:04;;;;;;;11.80;10.53;;;10.00;89.00;;;13.02;62.14;100467.72;5014135;28;20783;-52
2022/12/24 05:31:33;;;;;;;10.60;9.50;;;10.00;89.10;;;13.05;62.09;100488.44;5014311;28;20191;-52
2022/12/24 05:34:02;;;;;;;10.57;9.47;;;10.00;89.10;;;13.08;62.19;100482.81;5014688;28;20592;-53
2022/12/24 05:36:29;;;;;;;12.30;9.60;;;10.10;89.20;;;13.11;62.13;100484.25;5014364;28;20187;-51
2022/12/24 05:38:56;;;;;;;11.10;9.87;;;10.10;89.20;;;13.12;62.27;100481.38;5015038;28;20726;-53
2022/12/24 05:41:24;;;;;;;12.83;10.90;;;10.10;89.20;;;13.13;62.35;100483.03;5016193;28;20314;-53
2022/12/24 05:43:51;;;;;;;14.23;10.67;;;10.10;89.20;;;13.15;62.17;100488.94;5014548;28;20230;-55
2022/12/24 05:46:22;;;;;;;11.93;10.13;;;10.10;89.20;;;13.19;62.27;100495.44;5015585;28;20207;-56
2022/12/24 05:48:51;;;;;;;12.93;9.97;;;10.20;89.40;;;13.22;62.21;100497.69;5024354;28;20210;-55
2022/12/24 05:51:21;;;;;;;16.80;11.17;;;10.20;89.40;;;13.25;62.14;100509.69;5025497;28;20194;-53
2022/12/24 05:53:49;;;;;;;11.80;10.23;;;10.20;89.30;;;13.27;62.08;100510.31;5014322;28;20207;-53
2022/12/24 05:56:19;;;;;;;12.23;10.63;;;10.20;89.30;;;13.29;62.22;100516.22;5013950;28;20664;-55
2022/12/24 05:58:47;;;;;;;14.63;11.10;;;10.30;89.50;;;13.31;62.42;100517.66;5014275;28;20225;-54
2022/12/24 06:01:15;;;;;;;14.13;11.37;;;10.30;89.50;;;13.32;62.36;100510.53;5027012;28;20193;-55
2022/12/24 06:03:42;;;;;;;16.60;10.27;;;10.30;89.50;;;13.35;62.50;100518.09;5033735;28;20202;-58
2022/12/24 06:06:13;;;;;;;11.30;9.20;;;10.40;89.60;;;13.39;62.48;100512.19;5032875;28;20601;-55
2022/12/24 06:08:41;;;;;;;13.63;10.17;;;10.40;89.70;;;13.44;62.65;100516.88;5033107;28;20214;-55
2022/12/24 06:11:12;;;;;;;11.50;9.10;;;10.40;89.80;;;13.48;62.67;100511.00;5033722;28;20663;-54
2022/12/24 06:13:40;;;;;;;10.83;8.20;;;10.50;90.00;;;13.52;62.76;100522.84;5033618;28;20182;-52
2022/12/24 06:16:10;;;;;;;12.67;8.10;;;10.60;90.00;;;13.60;62.89;100523.66;5032315;28;20203;-54
2022/12/24 06:18:38;;;;;;;9.03;7.77;;;10.60;89.90;;;13.64;62.75;100514.31;5025101;28;20211;-54
2022/12/24 06:21:06;;;;;;;10.07;7.73;;;10.70;90.00;;;13.69;62.80;100525.94;5013710;28;20198;-54
2022/12/24 06:23:38;;;;;;;8.67;6.57;;;10.80;89.90;;;13.74;62.76;100530.63;5016529;28;20267;-55
2022/12/24 06:26:06;;;;;;;10.80;6.80;;;10.80;89.90;;;13.76;62.71;100533.88;5018058;28;20241;-54
2022/12/24 06:28:36;;;;;;;8.93;5.83;;;10.90;89.80;;;13.79;62.82;100533.47;5017239;28;20199;-55
2022/12/24 06:31:06;;;;;;;9.37;6.13;;;10.90;89.60;;;13.83;63.12;100556.69;5017492;28;20237;-53
2022/12/24 06:33:33;;;;;;;12.13;5.77;;;11.00;89.70;;;13.87;62.58;100541.22;5035761;28;20190;-53
2022/12/24 06:36:01;;;;;;;11.03;6.47;;;11.00;89.70;;;13.89;62.97;100552.41;5037451;28;20281;-53
2022/12/24 06:38:30;;;;;;;13.97;5.67;;;11.10;89.60;;;13.93;62.70;100556.31;5036593;28;20202;-54
2022/12/24 06:40:58;;;;;;;11.30;5.57;;;11.10;89.60;;;13.95;63.04;100554.28;5037500;28;20221;-54
2022/12/24 06:43:25;;;;;;;9.17;4.67;;;11.10;89.60;;;13.97;62.81;100557.53;5037476;28;20201;-54
2022/12/24 06:45:52;;;;;;;10.20;5.23;;;11.10;89.60;;;14.00;62.83;100560.56;5030473;28;20219;-54
2022/12/24 06:48:19;;;;;;;10.97;5.03;;;11.20;89.60;;;14.01;62.58;100564.88;5023724;28;20257;-54
2022/12/24 06:50:46;;;;;;;15.23;4.97;;;11.20;89.50;;;13.99;62.64;100555.50;5037131;28;20591;-55
2022/12/24 06:53:13;;;;;;;13.00;5.00;;;11.20;89.30;;;13.95;62.74;100559.56;5036900;28;20244;-52
2022/12/24 06:55:40;;;;;;;13.97;5.27;;;11.20;89.10;;;13.94;62.77;100557.91;5037319;28;20217;-55
2022/12/24 06:58:08;;;;;;;10.83;4.50;;;11.20;89.10;;;13.93;62.75;100561.59;5036587;28;20191;-54
2022/12/24 07:00:35;;;;;;;10.60;4.93;;;11.20;89.00;;;13.91;62.57;100574.19;5036476;28;20579;-52
2022/12/24 07:03:03;;;;;;;12.67;5.30;;;11.20;88.90;;;13.88;62.72;100580.69;5036218;28;20663;-53
2022/12/24 07:05:30;;;;;;;14.80;5.07;;;11.10;88.80;;;13.85;62.66;100585.59;5036662;28;20218;-55
2022/12/24 07:07:56;;;;;;;14.53;5.07;;;11.10;88.80;;;13.83;62.76;100592.91;5036848;28;20202;-53
2022/12/24 07:10:23;;;;;;;19.37;5.17;;;11.10;88.70;;;13.79;62.59;100607.53;5037530;28;20210;-54
2022/12/24 07:12:50;;;;;;;18.67;4.67;;;11.10;88.70;;;13.77;62.49;100617.50;5037160;28;20194;-51
2022/12/24 07:15:19;;;;;;;14.73;4.60;;;11.10;88.90;;;13.78;62.76;100616.50;5036139;28;20191;-51
2022/12/24 07:17:46;;;;;;;13.43;4.30;;;11.10;88.90;;;13.79;62.96;100626.03;5036826;28;20256;-52
2022/12/24 07:20:14;;;;;;;16.67;4.30;;;11.10;89.00;;;13.82;62.71;100646.81;5036377;28;20675;-55
2022/12/24 07:22:41;;;;;;;15.00;4.33;;;11.10;89.10;;;13.85;62.98;100649.91;5037318;28;20648;-55
2022/12/24 07:25:10;;;;;;;13.70;4.60;;;11.10;89.10;;;13.89;62.75;100640.53;5036755;28;20305;-54
2022/12/24 07:27:38;;;;;;;13.83;4.17;;;11.10;89.10;;;13.96;62.74;100635.28;5036035;28;20195;-52
2022/12/24 07:30:07;;;;;;;16.57;4.90;;;11.20;89.20;;;14.02;62.53;100647.72;5036237;28;20213;-52
2022/12/24 07:32:35;;;;;;;13.67;4.40;;;11.20;89.00;;;14.07;62.28;100645.28;5036626;28;20195;-52
2022/12/24 07:35:03;;;;;;;18.10;4.60;;;11.20;88.90;;;14.09;62.14;100651.19;5036820;28;20529;-51
2022/12/24 07:37:30;;;;;;;15.67;4.00;;;11.20;88.70;;;14.12;62.16;100650.81;5038972;28;20210;-55
2022/12/24 07:39:57;;;;;;;14.07;4.20;;;11.30;88.70;;;14.12;62.26;100656.09;5040075;28;20219;-52
2022/12/24 07:42:25;;;;;;;14.73;4.63;;;11.30;88.60;;;14.13;61.90;100661.19;5022323;28;20211;-56
2022/12/24 07:44:52;;;;;;;18.23;4.67;;;11.30;88.50;;;14.13;61.86;100663.00;5016447;28;20227;-54
2022/12/24 07:47:19;;;;;;;19.53;4.67;;;11.30;88.40;;;14.13;61.96;100661.19;5016565;28;20198;-55
2022/12/24 07:49:47;;;;;;;12.10;3.60;;;11.30;88.30;;;14.13;61.89;100657.72;5034397;28;20206;-61
2022/12/24 07:52:15;;;;;;;14.90;4.37;;;11.30;88.30;;;14.13;61.96;100663.00;5036301;28;20669;-55
2022/12/24 07:54:41;;;;;;;11.53;3.90;;;11.30;88.10;;;14.11;61.78;100659.75;5025871;28;20226;-54
2022/12/24 07:57:09;;;;;;;9.87;4.10;;;11.30;88.10;;;14.11;61.78;100670.34;5030257;28;20659;-55
2022/12/24 07:59:35;;;;;;;14.80;4.60;;;11.30;88.20;;;14.12;61.96;100675.44;5035532;28;20626;-53
2022/12/24 08:02:02;;;;;;;18.13;4.30;;;11.30;88.10;;;14.14;61.80;100686.63;5035346;28;20202;-56
2022/12/24 08:04:31;;;;;;;13.00;4.47;;;11.30;88.10;;;14.15;61.94;100674.22;5035761;28;20238;-55
2022/12/24 08:06:59;;;;;;;16.03;4.47;;;11.30;88.10;;;14.19;61.68;100686.06;5035455;28;20630;-55
2022/12/24 08:09:26;;;;;;;13.00;4.27;;;11.30;88.20;;;14.22;61.58;100693.56;5017569;28;20219;-54
2022/12/24 08:11:53;;;;;;;15.90;4.00;;;11.30;88.20;;;14.24;61.44;100708.25;5016086;28;20255;-55
2022/12/24 08:14:20;;;;;;;17.87;4.30;;;11.40;88.20;;;14.23;61.72;100708.47;5015644;28;20191;-55
2022/12/24 08:16:47;;;;;;;18.43;4.97;;;11.40;88.20;;;14.26;62.02;100710.72;5016166;28;20573;-53
2022/12/24 08:19:15;;;;;;;15.67;4.60;;;11.40;88.10;;;14.29;61.67;100709.50;5015571;28;20233;-53
2022/12/24 08:21:42;;;;;;;15.53;4.40;;;11.40;88.10;;;14.29;61.57;100714.81;5015833;28;20575;-53
2022/12/24 08:24:10;;;;;;;13.23;4.63;;;11.40;88.00;;;14.31;61.40;100716.25;5015742;28;20207;-53
2022/12/24 08:26:37;;;;;;;15.20;4.37;;;11.40;87.90;;;14.33;61.48;100718.72;5015551;28;20656;-55
2022/12/24 08:29:05;;;;;;;16.30;4.90;;;11.50;88.00;;;14.31;61.33;100718.88;5032833;28;20679;-56
2022/12/24 08:31:35;;;;;;;17.87;5.40;;;11.50;88.00;;;14.32;61.45;100725.81;5035120;28;20248;-53
2022/12/24 08:34:03;;;;;;;17.97;5.73;;;11.40;87.80;;;14.33;61.41;100730.13;5034309;28;20252;-54
2022/12/24 08:36:29;;;;;;;17.43;4.87;;;11.50;87.90;;;14.34;61.51;100736.22;5020400;28;20187;-54
2022/12/24 08:38:57;;;;;;;19.47;4.87;;;11.50;88.70;;;14.35;61.43;100738.69;5023769;28;20221;-55
2022/12/24 08:41:25;;;;;;;20.37;5.03;;;11.50;87.90;;;14.36;61.39;100742.16;5015816;28;20274;-54
2022/12/24 08:43:52;;;;;;;14.27;4.20;;;11.50;87.90;;;14.37;61.63;100755.19;5015298;28;20196;-56
2022/12/24 08:46:19;;;;;;;17.73;5.00;;;11.50;88.00;;;14.41;61.45;100761.69;5014518;28;20214;-54
2022/12/24 08:48:46;;;;;;;14.87;5.90;;;11.50;88.00;;;14.45;61.17;100762.97;5021441;28;20210;-55
2022/12/24 08:51:13;;;;;;;15.80;4.97;;;11.50;88.00;;;14.47;61.27;100760.94;5015376;28;20616;-54
2022/12/24 08:53:40;;;;;;;21.37;6.20;;;11.50;88.70;;;14.47;61.37;100755.63;5015648;28;20191;-53
2022/12/24 08:56:09;;;;;;;22.20;6.17;;;11.50;88.00;;;14.49;61.32;100764.19;5014640;28;20187;-55
2022/12/24 08:58:37;;;;;;;16.63;5.37;;;11.60;88.20;;;14.52;61.52;100769.09;5014811;28;20223;-56
2022/12/24 09:01:12;;;;;;;17.80;5.47;;;11.60;88.30;;;14.56;61.37;100769.50;5027110;28;20540;-55
2022/12/24 09:03:40;;;;;;;14.33;5.43;;;11.60;88.20;;;14.57;61.32;100766.63;5015458;28;20194;-53
2022/12/24 09:06:08;;;;;;;21.87;6.60;;;11.70;88.10;;;14.59;61.27;100769.94;5014803;28;20215;-53
2022/12/24 09:08:36;;;;;;;16.87;6.20;;;11.70;88.10;;;14.64;61.33;100788.66;5028046;28;20218;-53
2022/12/24 09:11:05;;;;;;;19.37;5.80;;;11.70;88.20;;;14.68;61.19;100789.91;5034590;28;20531;-53
2022/12/24 09:13:33;;;;;;;24.23;7.53;;;11.70;88.30;;;14.71;61.30;100789.50;5039634;28;20606;-54
2022/12/24 09:16:02;;;;;;;17.23;6.13;;;11.80;88.30;;;14.73;61.16;100790.13;5033046;28;20655;-53
2022/12/24 09:18:30;;;;;;;22.90;6.57;;;11.80;88.30;;;14.75;61.24;100782.81;5014217;28;20196;-56
2022/12/24 09:21:01;;;;;;;22.77;6.13;;;11.80;88.20;;;14.77;61.26;100801.97;5014959;28;20207;-56
2022/12/24 09:23:29;;;;;;;18.20;6.67;;;11.80;88.20;;;14.84;61.25;100809.91;5014477;28;20198;-53
2022/12/24 09:25:56;;;;;;;24.50;7.10;;;11.90;88.40;;;14.89;61.06;100803.00;5014449;28;20226;-53
2022/12/24 09:28:23;;;;;;;17.20;6.17;;;11.90;88.40;;;14.90;61.03;100804.63;5019905;28;20197;-55
2022/12/24 09:30:57;;;;;;;20.90;6.23;;;12.00;88.20;;;14.90;61.18;100809.94;5034225;28;20194;-56
2022/12/24 09:33:26;;;;;;;19.03;6.37;;;12.00;88.00;;;14.91;60.87;100806.28;5033994;28;20238;-53
2022/12/24 09:35:53;;;;;;;18.63;7.47;;;12.00;87.90;;;14.94;61.02;100820.97;5034447;28;20195;-56
2022/12/24 09:38:21;;;;;;;24.03;8.50;;;12.00;87.80;;;14.95;60.99;100830.56;5033854;28;20194;-53
2022/12/24 09:40:50;;;;;;;20.67;6.97;;;12.00;87.80;;;15.02;61.08;100833.22;5034372;28;20662;-53
2022/12/24 09:43:20;;;;;;;18.23;7.13;;;12.10;88.10;;;15.12;60.96;100844.25;5033601;28;20281;-55
2022/12/24 09:46:05;;;;;;;17.90;7.00;;;12.10;88.00;;;15.14;60.70;100836.91;5033391;28;20242;-53
2022/12/24 09:48:38;;;;;;;22.53;7.80;;;12.20;87.90;;;15.18;60.66;100843.44;5033503;28;20217;-55
2022/12/24 09:51:09;;;;;;;19.63;7.13;;;12.20;87.60;;;15.17;60.40;100844.44;5032420;28;20237;-54
2022/12/24 09:53:42;;;;;;;20.33;6.80;;;12.30;87.50;;;15.20;60.56;100852.00;5033706;28;20187;-55
2022/12/24 09:56:16;;;;;;;23.77;6.93;;;12.30;87.30;;;15.24;60.81;100858.53;5033470;28;20183;-55
2022/12/24 09:58:47;;;;;;;18.97;6.40;;;12.30;87.40;;;15.34;60.66;100864.25;5025687;28;20218;-53
2022/12/24 10:01:16;;;;;;;13.60;5.30;;;12.40;87.50;;;15.45;60.45;100861.06;5013240;28;20175;-53
2022/12/24 10:03:46;;;;;;;18.10;6.63;;;12.40;87.50;;;15.62;60.11;100858.81;5014367;28;20203;-54
2022/12/24 10:06:19;;;;;;;18.67;6.27;;;12.50;87.50;;;15.74;59.96;100863.28;5013722;28;20219;-53
2022/12/24 10:09:14;;;;;;;13.43;5.00;;;12.60;87.30;;;15.84;59.76;100866.34;5029555;28;20301;-53
2022/12/24 10:11:52;;;;;;;18.70;6.13;;;12.70;86.90;;;15.97;59.81;100878.78;5033797;28;20175;-55
2022/12/24 10:14:37;;;;;;;23.87;6.53;;;12.80;86.60;;;16.02;59.07;100871.03;5028578;28;20257;-54
2022/12/24 10:17:26;;;;;;;21.40;5.87;;;12.90;85.80;;;16.05;58.57;100871.41;5026110;28;20193;-53
2022/12/24 10:20:12;;;;;;;19.23;6.10;;;13.00;85.40;;;16.05;58.44;100868.78;5033641;28;20214;-56
2022/12/24 10:22:58;;;;;;;19.40;5.93;;;13.10;85.50;;;16.06;58.19;100875.72;5033344;28;20186;-56
2022/12/24 10:25:32;;;;;;;19.13;5.23;;;13.10;84.60;;;16.12;58.24;100880.19;5033349;28;20210;-53
2022/12/24 10:28:02;;;;;;;18.77;6.33;;;13.10;84.10;;;16.15;57.96;100882.44;5033400;28;20202;-56
2022/12/24 10:30:29;;;;;;;17.27;5.70;;;13.20;84.20;;;16.18;58.04;100882.03;5032644;28;20214;-55